createdAt,value
2022-11-19T00:01:41.360Z,9.70
2022-11-19T00:06:43.929Z,10.10
2022-11-19T00:12:04.965Z,8.73
2022-11-19T00:17:07.510Z,10.57
2022-11-19T00:22:10.013Z,8.60
2022-11-19T00:27:13.197Z,9.63
2022-11-19T00:32:15.722Z,12.97
2022-11-19T00:37:18.235Z,11.47
2022-11-19T00:42:21.734Z,12.33
2022-11-19T00:47:24.183Z,13.60
2022-11-19T00:52:26.596Z,9.70
2022-11-19T00:57:28.958Z,10.83
2022-11-19T01:02:31.495Z,9.57
2022-11-19T01:07:34.029Z,12.13
2022-11-19T01:12:56.427Z,21.20
2022-11-19T01:17:58.897Z,31.70
2022-11-19T01:23:01.746Z,21.00
2022-11-19T01:28:04.893Z,16.97
2022-11-19T01:33:07.589Z,10.27
2022-11-19T01:38:10.264Z,10.10
2022-11-19T01:43:14.089Z,11.57
2022-11-19T01:48:22.134Z,10.50
2022-11-19T01:53:27.082Z,11.10
2022-11-19T01:58:32.761Z,10.47
2022-11-19T02:03:36.563Z,10.30
2022-11-19T02:08:47.777Z,12.57
2022-11-19T02:14:08.789Z,12.53
2022-11-19T02:19:44.966Z,14.53
2022-11-19T02:24:50.330Z,17.43
2022-11-19T02:30:13.418Z,16.73
2022-11-19T02:35:35.119Z,19.47
2022-11-19T02:40:43.130Z,16.47
2022-11-19T02:45:51.698Z,15.50
2022-11-19T02:50:58.390Z,14.30
2022-11-19T02:56:17.874Z,14.53
2022-11-19T03:01:40.477Z,13.73
2022-11-19T03:06:43.089Z,12.60
2022-11-19T03:11:52.145Z,12.27
2022-11-19T03:17:03.202Z,14.03
2022-11-19T03:22:14.730Z,14.47
2022-11-19T03:27:24.226Z,12.50
2022-11-19T03:32:31.362Z,12.70
2022-11-19T03:37:38.723Z,13.27
2022-11-19T03:42:43.929Z,13.10
2022-11-19T03:47:50.180Z,11.67
2022-11-19T03:52:52.831Z,12.80
2022-11-19T03:58:00.395Z,14.93
2022-11-19T04:03:02.861Z,15.30
2022-11-19T04:08:05.896Z,13.20
2022-11-19T04:13:08.290Z,14.37
2022-11-19T04:18:11.149Z,14.13
2022-11-19T04:23:13.496Z,13.37
2022-11-19T04:28:15.927Z,15.00
2022-11-19T04:33:18.520Z,14.23
2022-11-19T04:38:20.932Z,13.60
2022-11-19T04:43:23.310Z,14.53
2022-11-19T04:48:25.949Z,14.43
2022-11-19T04:53:28.401Z,13.03
2022-11-19T04:58:30.869Z,13.73
2022-11-19T05:03:33.462Z,13.03
2022-11-19T05:08:35.932Z,14.20
2022-11-19T05:13:38.677Z,14.00
2022-11-19T05:18:41.153Z,14.73
2022-11-19T05:23:43.635Z,14.40
2022-11-19T05:28:46.384Z,14.00
2022-11-19T05:33:48.623Z,16.77
2022-11-19T05:38:51.106Z,19.23
2022-11-19T05:43:53.653Z,48.20
2022-11-19T05:48:56.215Z,35.03
2022-11-19T05:53:58.756Z,38.53
2022-11-19T05:59:01.590Z,37.70
2022-11-19T06:04:04.105Z,39.80
2022-11-19T06:14:29.953Z,37.67
2022-11-19T06:19:32.586Z,31.87
2022-11-19T06:24:34.987Z,31.03
2022-11-19T06:29:37.386Z,28.50
2022-11-19T06:34:39.830Z,30.53
2022-11-19T06:39:43.118Z,29.60
2022-11-19T06:44:45.747Z,30.37
2022-11-19T06:49:48.205Z,30.10
2022-11-19T06:54:50.693Z,31.13
2022-11-19T06:59:53.188Z,32.77
2022-11-19T07:04:55.596Z,28.13
2022-11-19T07:09:58.026Z,35.33
2022-11-19T07:15:04.232Z,29.90
2022-11-19T07:20:08.428Z,28.77
2022-11-19T07:25:14.191Z,28.17
2022-11-19T07:30:17.480Z,30.07
2022-11-19T07:35:20.054Z,25.90
2022-11-19T07:40:22.941Z,28.03
2022-11-19T07:45:25.329Z,28.23
2022-11-19T07:50:27.729Z,27.20
2022-11-19T07:55:30.231Z,23.40
2022-11-19T08:00:32.649Z,22.17
2022-11-19T08:05:38.366Z,20.50
2022-11-19T08:10:43.450Z,18.90
2022-11-19T08:15:45.914Z,19.77
2022-11-19T08:20:48.912Z,21.00
2022-11-19T08:25:53.050Z,21.27
2022-11-19T08:30:56.129Z,21.20
2022-11-19T08:35:58.546Z,18.47
2022-11-19T08:41:23.988Z,17.93
2022-11-19T08:46:26.418Z,17.30
2022-11-19T08:51:28.979Z,19.13
2022-11-19T08:56:31.802Z,20.83
2022-11-19T09:01:34.236Z,18.70
2022-11-19T09:06:36.658Z,20.43
2022-11-19T09:11:42.620Z,20.63
2022-11-19T09:16:45.518Z,20.30
2022-11-19T09:21:48.306Z,19.03
2022-11-19T09:26:53.000Z,17.63
2022-11-19T09:31:55.834Z,18.67
2022-11-19T09:36:58.599Z,19.97
2022-11-19T09:42:36.286Z,17.80
2022-11-19T09:48:00.036Z,19.47
2022-11-19T09:53:32.124Z,21.67
2022-11-19T09:58:43.250Z,17.67
2022-11-19T10:03:51.137Z,15.77
2022-11-19T10:09:21.904Z,17.07
2022-11-19T10:14:53.985Z,15.87
2022-11-19T10:20:33.954Z,14.90
2022-11-19T10:25:40.978Z,14.30
2022-11-19T10:30:52.873Z,14.40
2022-11-19T10:35:59.843Z,15.17
2022-11-19T10:41:11.899Z,14.63
2022-11-19T10:46:19.763Z,14.07
2022-11-19T10:51:27.580Z,13.87
2022-11-19T10:56:39.951Z,12.40
2022-11-19T11:01:45.529Z,15.13
2022-11-19T11:07:05.438Z,13.43
2022-11-19T11:12:35.540Z,16.17
2022-11-19T11:17:39.124Z,14.10
2022-11-19T11:22:48.428Z,15.17
2022-11-19T11:28:05.215Z,14.60
2022-11-19T11:33:25.929Z,15.13
2022-11-19T11:38:29.455Z,15.90
2022-11-19T11:43:34.687Z,13.40
2022-11-19T11:48:44.580Z,12.30
2022-11-19T11:54:04.455Z,13.20
2022-11-19T11:59:27.339Z,12.17
2022-11-19T12:04:30.323Z,11.47
2022-11-19T12:09:42.489Z,10.93
2022-11-19T12:15:03.528Z,14.57
2022-11-19T12:20:36.901Z,12.07
2022-11-19T12:25:58.340Z,12.20
2022-11-19T12:31:35.309Z,10.37
2022-11-19T12:36:49.475Z,11.93
2022-11-19T12:42:13.535Z,9.53
2022-11-19T12:47:45.031Z,10.57
2022-11-19T12:53:19.135Z,11.67
2022-11-19T12:58:53.822Z,8.47
2022-11-19T13:04:05.261Z,14.17
2022-11-19T22:36:40.381Z,16.30
2022-11-19T22:41:42.917Z,17.50
2022-11-19T22:46:45.493Z,26.67
2022-11-19T22:51:49.375Z,63.30
2022-11-19T22:56:52.171Z,29.23
2022-11-19T23:01:54.598Z,73.00
2022-11-19T23:06:57.132Z,55.00
2022-11-19T23:12:18.192Z,61.40
2022-11-19T23:17:20.665Z,14.73
2022-11-19T23:22:23.274Z,13.40
2022-11-19T23:27:25.694Z,14.67
2022-11-19T23:32:29.354Z,12.87
2022-11-19T23:37:31.899Z,29.37
2022-11-19T23:42:34.404Z,15.05
2022-11-19T23:47:38.017Z,12.13
2022-11-19T23:52:40.469Z,12.07
2022-11-19T23:57:42.889Z,12.67
